sensor_id;sensor_type;location;lat;lon;timestamp;P1;durP1;ratioP1;P2;durP2;ratioP2
11024;SDS011;22890;51.820;8.682;2024-01-30T00:00:03;14.93;;;7.17;;
11024;SDS011;22890;51.820;8.682;2024-01-30T00:02:31;10.73;;;7.50;;
11024;SDS011;22890;51.820;8.682;2024-01-30T00:04:58;15.50;;;6.90;;
11024;SDS011;22890;51.820;8.682;2024-01-30T00:07:25;11.17;;;7.23;;
11024;SDS011;22890;51.820;8.682;2024-01-30T00:09:53;12.00;;;7.37;;
11024;SDS011;22890;51.820;8.682;2024-01-30T00:12:19;11.20;;;6.37;;
11024;SDS011;22890;51.820;8.682;2024-01-30T00:14:46;8.50;;;7.10;;
11024;SDS011;22890;51.820;8.682;2024-01-30T00:17:17;10.23;;;7.07;;
11024;SDS011;22890;51.820;8.682;2024-01-30T00:19:43;10.50;;;7.43;;
11024;SDS011;22890;51.820;8.682;2024-01-30T00:22:11;9.60;;;7.33;;
11024;SDS011;22890;51.820;8.682;2024-01-30T00:24:38;9.33;;;6.50;;
11024;SDS011;22890;51.820;8.682;2024-01-30T00:27:05;10.07;;;6.87;;
11024;SDS011;22890;51.820;8.682;2024-01-30T00:29:31;12.40;;;7.83;;
11024;SDS011;22890;51.820;8.682;2024-01-30T00:32:00;10.17;;;7.40;;
11024;SDS011;22890;51.820;8.682;2024-01-30T00:34:26;13.30;;;6.47;;
11024;SDS011;22890;51.820;8.682;2024-01-30T00:36:54;9.17;;;6.30;;
11024;SDS011;22890;51.820;8.682;2024-01-30T00:39:21;8.37;;;6.63;;
11024;SDS011;22890;51.820;8.682;2024-01-30T00:41:48;12.00;;;6.53;;
11024;SDS011;22890;51.820;8.682;2024-01-30T00:44:15;7.67;;;6.03;;
11024;SDS011;22890;51.820;8.682;2024-01-30T00:46:42;11.20;;;6.43;;
11024;SDS011;22890;51.820;8.682;2024-01-30T00:49:10;8.50;;;5.73;;
11024;SDS011;22890;51.820;8.682;2024-01-30T00:51:37;6.23;;;5.17;;
11024;SDS011;22890;51.820;8.682;2024-01-30T00:54:04;9.83;;;5.30;;
11024;SDS011;22890;51.820;8.682;2024-01-30T00:56:32;8.63;;;5.93;;
11024;SDS011;22890;51.820;8.682;2024-01-30T00:58:59;7.17;;;5.40;;
11024;SDS011;22890;51.820;8.682;2024-01-30T01:01:26;6.50;;;4.90;;
11024;SDS011;22890;51.820;8.682;2024-01-30T01:03:53;8.53;;;5.83;;
11024;SDS011;22890;51.820;8.682;2024-01-30T01:06:20;7.43;;;5.23;;
11024;SDS011;22890;51.820;8.682;2024-01-30T01:08:47;7.30;;;5.37;;
11024;SDS011;22890;51.820;8.682;2024-01-30T01:11:14;9.23;;;5.27;;
11024;SDS011;22890;51.820;8.682;2024-01-30T01:13:41;7.67;;;5.40;;
11024;SDS011;22890;51.820;8.682;2024-01-30T01:16:08;7.87;;;5.37;;
11024;SDS011;22890;51.820;8.682;2024-01-30T01:18:35;7.60;;;5.83;;
11024;SDS011;22890;51.820;8.682;2024-01-30T01:21:03;6.13;;;4.93;;
11024;SDS011;22890;51.820;8.682;2024-01-30T01:23:29;6.70;;;5.77;;
11024;SDS011;22890;51.820;8.682;2024-01-30T01:25:56;8.33;;;4.93;;
11024;SDS011;22890;51.820;8.682;2024-01-30T01:28:26;8.60;;;5.20;;
11024;SDS011;22890;51.820;8.682;2024-01-30T01:30:54;6.03;;;4.93;;
11024;SDS011;22890;51.820;8.682;2024-01-30T01:33:25;9.30;;;5.87;;
11024;SDS011;22890;51.820;8.682;2024-01-30T01:35:52;10.37;;;6.20;;
11024;SDS011;22890;51.820;8.682;2024-01-30T01:38:19;10.57;;;5.97;;
11024;SDS011;22890;51.820;8.682;2024-01-30T01:40:46;7.93;;;5.87;;
11024;SDS011;22890;51.820;8.682;2024-01-30T01:43:13;6.97;;;5.63;;
11024;SDS011;22890;51.820;8.682;2024-01-30T01:45:41;9.03;;;5.03;;
11024;SDS011;22890;51.820;8.682;2024-01-30T01:48:08;7.90;;;5.70;;
11024;SDS011;22890;51.820;8.682;2024-01-30T01:50:35;7.50;;;5.00;;
11024;SDS011;22890;51.820;8.682;2024-01-30T01:53:03;6.77;;;4.83;;
11024;SDS011;22890;51.820;8.682;2024-01-30T01:55:30;6.27;;;4.77;;
11024;SDS011;22890;51.820;8.682;2024-01-30T01:57:58;7.43;;;5.83;;
11024;SDS011;22890;51.820;8.682;2024-01-30T02:00:25;8.73;;;5.67;;
11024;SDS011;22890;51.820;8.682;2024-01-30T02:02:53;8.60;;;5.93;;
11024;SDS011;22890;51.820;8.682;2024-01-30T02:05:21;7.93;;;5.30;;
11024;SDS011;22890;51.820;8.682;2024-01-30T02:07:48;8.97;;;5.80;;
11024;SDS011;22890;51.820;8.682;2024-01-30T02:10:15;7.67;;;6.07;;
11024;SDS011;22890;51.820;8.682;2024-01-30T02:12:42;8.60;;;5.80;;
11024;SDS011;22890;51.820;8.682;2024-01-30T02:15:12;7.97;;;5.20;;
11024;SDS011;22890;51.820;8.682;2024-01-30T02:17:40;7.90;;;5.23;;
11024;SDS011;22890;51.820;8.682;2024-01-30T02:20:07;7.13;;;5.20;;
11024;SDS011;22890;51.820;8.682;2024-01-30T02:22:35;7.50;;;5.73;;
11024;SDS011;22890;51.820;8.682;2024-01-30T02:25:03;7.13;;;5.10;;
11024;SDS011;22890;51.820;8.682;2024-01-30T02:27:30;8.90;;;5.00;;
11024;SDS011;22890;51.820;8.682;2024-01-30T02:29:58;7.57;;;5.53;;
11024;SDS011;22890;51.820;8.682;2024-01-30T02:32:25;7.40;;;5.67;;
11024;SDS011;22890;51.820;8.682;2024-01-30T02:34:52;7.33;;;5.73;;
11024;SDS011;22890;51.820;8.682;2024-01-30T02:37:20;11.33;;;6.07;;
11024;SDS011;22890;51.820;8.682;2024-01-30T02:39:47;6.73;;;5.33;;
11024;SDS011;22890;51.820;8.682;2024-01-30T02:42:14;8.53;;;5.33;;
11024;SDS011;22890;51.820;8.682;2024-01-30T02:44:41;7.73;;;5.10;;
11024;SDS011;22890;51.820;8.682;2024-01-30T02:47:08;8.07;;;4.90;;
11024;SDS011;22890;51.820;8.682;2024-01-30T02:49:35;8.13;;;5.23;;
11024;SDS011;22890;51.820;8.682;2024-01-30T02:52:02;10.20;;;6.03;;
11024;SDS011;22890;51.820;8.682;2024-01-30T02:54:29;8.67;;;5.33;;
11024;SDS011;22890;51.820;8.682;2024-01-30T02:56:57;8.27;;;5.67;;
11024;SDS011;22890;51.820;8.682;2024-01-30T02:59:24;9.90;;;6.50;;
11024;SDS011;22890;51.820;8.682;2024-01-30T03:01:51;7.23;;;5.90;;
11024;SDS011;22890;51.820;8.682;2024-01-30T03:04:18;11.20;;;6.20;;
11024;SDS011;22890;51.820;8.682;2024-01-30T03:06:45;10.00;;;5.93;;
11024;SDS011;22890;51.820;8.682;2024-01-30T03:09:18;8.93;;;6.10;;
11024;SDS011;22890;51.820;8.682;2024-01-30T03:11:45;9.00;;;6.40;;
11024;SDS011;22890;51.820;8.682;2024-01-30T03:14:12;8.33;;;5.63;;
11024;SDS011;22890;51.820;8.682;2024-01-30T03:16:39;6.20;;;4.90;;
11024;SDS011;22890;51.820;8.682;2024-01-30T03:19:06;7.73;;;6.03;;
11024;SDS011;22890;51.820;8.682;2024-01-30T03:21:36;6.33;;;4.87;;
11024;SDS011;22890;51.820;8.682;2024-01-30T03:24:03;7.60;;;4.97;;
11024;SDS011;22890;51.820;8.682;2024-01-30T03:26:30;8.07;;;5.10;;
11024;SDS011;22890;51.820;8.682;2024-01-30T03:28:58;10.97;;;5.50;;
11024;SDS011;22890;51.820;8.682;2024-01-30T03:31:25;8.53;;;5.93;;
11024;SDS011;22890;51.820;8.682;2024-01-30T03:33:52;6.03;;;5.03;;
11024;SDS011;22890;51.820;8.682;2024-01-30T03:36:19;8.30;;;5.67;;
11024;SDS011;22890;51.820;8.682;2024-01-30T03:38:46;8.07;;;5.83;;
11024;SDS011;22890;51.820;8.682;2024-01-30T03:41:13;7.13;;;6.00;;
11024;SDS011;22890;51.820;8.682;2024-01-30T03:43:41;6.57;;;5.17;;
11024;SDS011;22890;51.820;8.682;2024-01-30T03:46:08;8.47;;;5.73;;
11024;SDS011;22890;51.820;8.682;2024-01-30T03:48:35;8.60;;;5.80;;
11024;SDS011;22890;51.820;8.682;2024-01-30T03:51:02;6.97;;;5.43;;
11024;SDS011;22890;51.820;8.682;2024-01-30T03:53:29;7.27;;;5.40;;
11024;SDS011;22890;51.820;8.682;2024-01-30T03:55:56;8.97;;;6.07;;
11024;SDS011;22890;51.820;8.682;2024-01-30T03:58:23;8.60;;;5.83;;
11024;SDS011;22890;51.820;8.682;2024-01-30T04:00:50;9.10;;;5.97;;
11024;SDS011;22890;51.820;8.682;2024-01-30T04:03:17;8.73;;;5.67;;
11024;SDS011;22890;51.820;8.682;2024-01-30T04:05:44;9.10;;;5.73;;
11024;SDS011;22890;51.820;8.682;2024-01-30T04:08:11;8.83;;;5.87;;
11024;SDS011;22890;51.820;8.682;2024-01-30T04:10:38;12.43;;;7.37;;
11024;SDS011;22890;51.820;8.682;2024-01-30T04:13:05;10.23;;;5.97;;
11024;SDS011;22890;51.820;8.682;2024-01-30T04:15:37;9.57;;;5.77;;
11024;SDS011;22890;51.820;8.682;2024-01-30T04:18:04;8.33;;;5.57;;
11024;SDS011;22890;51.820;8.682;2024-01-30T04:20:31;8.83;;;5.03;;
11024;SDS011;22890;51.820;8.682;2024-01-30T04:22:57;9.47;;;5.63;;
11024;SDS011;22890;51.820;8.682;2024-01-30T04:25:24;8.57;;;5.33;;
11024;SDS011;22890;51.820;8.682;2024-01-30T04:27:52;9.13;;;5.87;;
11024;SDS011;22890;51.820;8.682;2024-01-30T04:30:18;9.53;;;6.73;;
11024;SDS011;22890;51.820;8.682;2024-01-30T04:32:45;7.13;;;5.67;;
11024;SDS011;22890;51.820;8.682;2024-01-30T04:35:12;8.70;;;6.20;;
11024;SDS011;22890;51.820;8.682;2024-01-30T04:37:40;11.77;;;6.00;;
11024;SDS011;22890;51.820;8.682;2024-01-30T04:40:07;10.03;;;5.30;;
11024;SDS011;22890;51.820;8.682;2024-01-30T04:42:35;9.73;;;5.63;;
11024;SDS011;22890;51.820;8.682;2024-01-30T04:45:03;7.60;;;6.03;;
11024;SDS011;22890;51.820;8.682;2024-01-30T04:47:30;10.37;;;6.17;;
11024;SDS011;22890;51.820;8.682;2024-01-30T04:49:57;7.70;;;5.90;;
11024;SDS011;22890;51.820;8.682;2024-01-30T04:52:24;7.57;;;5.40;;
11024;SDS011;22890;51.820;8.682;2024-01-30T04:54:51;10.37;;;5.93;;
11024;SDS011;22890;51.820;8.682;2024-01-30T04:57:18;7.00;;;5.53;;
11024;SDS011;22890;51.820;8.682;2024-01-30T04:59:45;11.70;;;5.70;;
11024;SDS011;22890;51.820;8.682;2024-01-30T05:02:12;7.43;;;5.43;;
11024;SDS011;22890;51.820;8.682;2024-01-30T05:04:40;8.73;;;5.67;;
11024;SDS011;22890;51.820;8.682;2024-01-30T05:07:08;9.83;;;5.67;;
11024;SDS011;22890;51.820;8.682;2024-01-30T05:09:35;8.17;;;5.67;;
11024;SDS011;22890;51.820;8.682;2024-01-30T05:12:02;8.80;;;5.97;;
11024;SDS011;22890;51.820;8.682;2024-01-30T05:14:29;8.07;;;5.97;;
11024;SDS011;22890;51.820;8.682;2024-01-30T05:16:55;8.17;;;6.20;;
11024;SDS011;22890;51.820;8.682;2024-01-30T05:19:23;8.30;;;5.97;;
11024;SDS011;22890;51.820;8.682;2024-01-30T05:21:50;10.50;;;5.97;;
11024;SDS011;22890;51.820;8.682;2024-01-30T05:24:17;11.63;;;7.17;;
11024;SDS011;22890;51.820;8.682;2024-01-30T05:26:46;11.07;;;5.93;;
11024;SDS011;22890;51.820;8.682;2024-01-30T05:29:14;10.07;;;5.73;;
11024;SDS011;22890;51.820;8.682;2024-01-30T05:31:41;11.03;;;6.20;;
11024;SDS011;22890;51.820;8.682;2024-01-30T05:34:08;7.10;;;5.33;;
11024;SDS011;22890;51.820;8.682;2024-01-30T05:36:35;7.60;;;5.30;;
11024;SDS011;22890;51.820;8.682;2024-01-30T05:39:02;9.53;;;5.70;;
11024;SDS011;22890;51.820;8.682;2024-01-30T05:41:34;9.47;;;5.93;;
11024;SDS011;22890;51.820;8.682;2024-01-30T05:44:01;8.27;;;5.73;;
11024;SDS011;22890;51.820;8.682;2024-01-30T05:46:28;11.90;;;6.43;;
11024;SDS011;22890;51.820;8.682;2024-01-30T05:48:55;9.40;;;5.37;;
11024;SDS011;22890;51.820;8.682;2024-01-30T05:51:22;9.60;;;6.13;;
11024;SDS011;22890;51.820;8.682;2024-01-30T05:53:49;12.07;;;6.77;;
11024;SDS011;22890;51.820;8.682;2024-01-30T05:56:16;9.57;;;6.43;;
11024;SDS011;22890;51.820;8.682;2024-01-30T05:58:43;8.33;;;5.60;;
11024;SDS011;22890;51.820;8.682;2024-01-30T06:01:10;11.53;;;6.90;;
11024;SDS011;22890;51.820;8.682;2024-01-30T06:03:37;13.83;;;8.10;;
11024;SDS011;22890;51.820;8.682;2024-01-30T06:06:05;19.45;;;11.65;;
11024;SDS011;22890;51.820;8.682;2024-01-30T06:08:32;15.40;;;8.87;;
11024;SDS011;22890;51.820;8.682;2024-01-30T06:10:59;13.23;;;8.53;;
11024;SDS011;22890;51.820;8.682;2024-01-30T06:13:26;12.50;;;7.87;;
11024;SDS011;22890;51.820;8.682;2024-01-30T06:15:54;13.27;;;7.27;;
11024;SDS011;22890;51.820;8.682;2024-01-30T06:18:21;11.90;;;7.10;;
11024;SDS011;22890;51.820;8.682;2024-01-30T06:20:48;13.47;;;6.87;;
11024;SDS011;22890;51.820;8.682;2024-01-30T06:23:15;8.37;;;6.13;;
11024;SDS011;22890;51.820;8.682;2024-01-30T06:25:42;12.07;;;6.43;;
11024;SDS011;22890;51.820;8.682;2024-01-30T06:28:09;10.10;;;6.30;;
11024;SDS011;22890;51.820;8.682;2024-01-30T06:30:36;9.37;;;5.83;;
11024;SDS011;22890;51.820;8.682;2024-01-30T06:33:03;7.47;;;5.90;;
11024;SDS011;22890;51.820;8.682;2024-01-30T06:35:31;8.50;;;5.70;;
11024;SDS011;22890;51.820;8.682;2024-01-30T06:37:58;10.27;;;5.97;;
11024;SDS011;22890;51.820;8.682;2024-01-30T06:40:25;14.57;;;6.50;;
11024;SDS011;22890;51.820;8.682;2024-01-30T06:42:52;10.13;;;5.57;;
11024;SDS011;22890;51.820;8.682;2024-01-30T06:45:19;8.53;;;6.00;;
11024;SDS011;22890;51.820;8.682;2024-01-30T06:47:46;12.70;;;6.10;;
11024;SDS011;22890;51.820;8.682;2024-01-30T06:50:13;8.33;;;6.27;;
11024;SDS011;22890;51.820;8.682;2024-01-30T06:52:40;12.80;;;7.20;;
11024;SDS011;22890;51.820;8.682;2024-01-30T06:55:08;8.80;;;5.40;;
11024;SDS011;22890;51.820;8.682;2024-01-30T06:57:35;8.87;;;6.30;;
11024;SDS011;22890;51.820;8.682;2024-01-30T07:00:02;11.07;;;6.00;;
11024;SDS011;22890;51.820;8.682;2024-01-30T07:02:29;9.40;;;6.27;;
11024;SDS011;22890;51.820;8.682;2024-01-30T07:04:57;8.37;;;6.20;;
11024;SDS011;22890;51.820;8.682;2024-01-30T07:07:24;9.07;;;5.83;;
11024;SDS011;22890;51.820;8.682;2024-01-30T07:09:51;9.00;;;6.47;;
11024;SDS011;22890;51.820;8.682;2024-01-30T07:12:22;10.83;;;5.77;;
11024;SDS011;22890;51.820;8.682;2024-01-30T07:14:51;9.40;;;5.47;;
11024;SDS011;22890;51.820;8.682;2024-01-30T07:17:19;10.30;;;6.33;;
11024;SDS011;22890;51.820;8.682;2024-01-30T07:19:46;7.93;;;5.87;;
11024;SDS011;22890;51.820;8.682;2024-01-30T07:22:14;10.20;;;5.80;;
11024;SDS011;22890;51.820;8.682;2024-01-30T07:24:44;9.37;;;5.73;;
11024;SDS011;22890;51.820;8.682;2024-01-30T07:27:13;10.47;;;6.03;;
11024;SDS011;22890;51.820;8.682;2024-01-30T07:29:40;10.80;;;6.70;;
11024;SDS011;22890;51.820;8.682;2024-01-30T07:32:07;9.60;;;6.20;;
11024;SDS011;22890;51.820;8.682;2024-01-30T07:34:34;12.03;;;6.07;;
11024;SDS011;22890;51.820;8.682;2024-01-30T07:37:14;14.73;;;6.20;;
11024;SDS011;22890;51.820;8.682;2024-01-30T07:39:42;12.13;;;7.10;;
11024;SDS011;22890;51.820;8.682;2024-01-30T07:42:09;7.40;;;5.67;;
11024;SDS011;22890;51.820;8.682;2024-01-30T07:44:36;10.00;;;5.97;;
11024;SDS011;22890;51.820;8.682;2024-01-30T07:47:04;9.30;;;5.93;;
11024;SDS011;22890;51.820;8.682;2024-01-30T07:49:31;10.60;;;6.30;;
11024;SDS011;22890;51.820;8.682;2024-01-30T07:51:58;10.73;;;6.40;;
11024;SDS011;22890;51.820;8.682;2024-01-30T07:54:26;8.47;;;5.53;;
11024;SDS011;22890;51.820;8.682;2024-01-30T07:56:53;8.37;;;5.60;;
11024;SDS011;22890;51.820;8.682;2024-01-30T07:59:20;9.80;;;5.47;;
11024;SDS011;22890;51.820;8.682;2024-01-30T08:01:50;7.77;;;5.63;;
11024;SDS011;22890;51.820;8.682;2024-01-30T08:04:18;6.97;;;5.50;;
11024;SDS011;22890;51.820;8.682;2024-01-30T08:06:45;9.97;;;6.07;;
11024;SDS011;22890;51.820;8.682;2024-01-30T08:09:12;8.93;;;5.53;;
11024;SDS011;22890;51.820;8.682;2024-01-30T08:11:39;8.13;;;6.07;;
11024;SDS011;22890;51.820;8.682;2024-01-30T08:14:06;9.57;;;5.60;;
11024;SDS011;22890;51.820;8.682;2024-01-30T08:16:33;9.60;;;5.83;;
11024;SDS011;22890;51.820;8.682;2024-01-30T08:19:00;9.90;;;5.73;;
11024;SDS011;22890;51.820;8.682;2024-01-30T08:21:27;8.77;;;5.67;;
11024;SDS011;22890;51.820;8.682;2024-01-30T08:23:54;7.97;;;5.53;;
11024;SDS011;22890;51.820;8.682;2024-01-30T08:26:21;9.47;;;4.83;;
11024;SDS011;22890;51.820;8.682;2024-01-30T08:28:48;8.70;;;5.53;;
11024;SDS011;22890;51.820;8.682;2024-01-30T08:31:16;7.53;;;5.23;;
11024;SDS011;22890;51.820;8.682;2024-01-30T08:33:43;8.70;;;5.73;;
11024;SDS011;22890;51.820;8.682;2024-01-30T08:36:12;9.33;;;5.93;;
11024;SDS011;22890;51.820;8.682;2024-01-30T08:38:40;9.93;;;5.90;;
11024;SDS011;22890;51.820;8.682;2024-01-30T08:41:07;6.23;;;5.30;;
11024;SDS011;22890;51.820;8.682;2024-01-30T08:43:34;12.07;;;6.07;;
11024;SDS011;22890;51.820;8.682;2024-01-30T08:46:02;9.37;;;6.17;;
11024;SDS011;22890;51.820;8.682;2024-01-30T08:48:29;8.23;;;5.63;;
11024;SDS011;22890;51.820;8.682;2024-01-30T08:50:57;9.13;;;6.13;;
11024;SDS011;22890;51.820;8.682;2024-01-30T08:53:23;10.40;;;6.00;;
11024;SDS011;22890;51.820;8.682;2024-01-30T08:55:51;9.13;;;6.20;;
11024;SDS011;22890;51.820;8.682;2024-01-30T08:58:18;12.47;;;8.53;;
11024;SDS011;22890;51.820;8.682;2024-01-30T09:00:45;21.27;;;10.40;;
11024;SDS011;22890;51.820;8.682;2024-01-30T09:03:13;16.70;;;8.73;;
11024;SDS011;22890;51.820;8.682;2024-01-30T09:05:40;27.10;;;15.73;;
11024;SDS011;22890;51.820;8.682;2024-01-30T09:08:07;27.33;;;16.67;;
11024;SDS011;22890;51.820;8.682;2024-01-30T09:10:34;13.60;;;9.73;;
11024;SDS011;22890;51.820;8.682;2024-01-30T09:13:01;13.17;;;8.40;;
11024;SDS011;22890;51.820;8.682;2024-01-30T09:15:29;9.80;;;7.23;;
11024;SDS011;22890;51.820;8.682;2024-01-30T09:17:56;14.03;;;6.33;;
11024;SDS011;22890;51.820;8.682;2024-01-30T09:20:23;13.33;;;6.97;;
11024;SDS011;22890;51.820;8.682;2024-01-30T09:22:49;11.17;;;6.83;;
11024;SDS011;22890;51.820;8.682;2024-01-30T09:25:16;10.43;;;6.00;;
11024;SDS011;22890;51.820;8.682;2024-01-30T09:27:45;8.83;;;5.93;;
11024;SDS011;22890;51.820;8.682;2024-01-30T09:30:12;9.40;;;6.00;;
11024;SDS011;22890;51.820;8.682;2024-01-30T09:32:39;9.23;;;6.33;;
11024;SDS011;22890;51.820;8.682;2024-01-30T09:35:07;15.37;;;5.90;;
11024;SDS011;22890;51.820;8.682;2024-01-30T09:37:34;8.47;;;5.80;;
11024;SDS011;22890;51.820;8.682;2024-01-30T09:40:02;10.17;;;6.53;;
11024;SDS011;22890;51.820;8.682;2024-01-30T09:42:36;10.03;;;5.83;;
11024;SDS011;22890;51.820;8.682;2024-01-30T09:45:03;11.00;;;6.17;;
11024;SDS011;22890;51.820;8.682;2024-01-30T09:47:31;8.67;;;6.23;;
11024;SDS011;22890;51.820;8.682;2024-01-30T09:50:06;11.70;;;6.00;;
11024;SDS011;22890;51.820;8.682;2024-01-30T09:52:33;8.20;;;6.50;;
11024;SDS011;22890;51.820;8.682;2024-01-30T09:55:00;11.27;;;6.97;;
11024;SDS011;22890;51.820;8.682;2024-01-30T09:57:27;9.77;;;7.00;;
11024;SDS011;22890;51.820;8.682;2024-01-30T09:59:55;11.40;;;6.07;;
11024;SDS011;22890;51.820;8.682;2024-01-30T10:02:21;10.93;;;6.90;;
11024;SDS011;22890;51.820;8.682;2024-01-30T10:04:49;8.33;;;6.23;;
11024;SDS011;22890;51.820;8.682;2024-01-30T10:07:17;8.10;;;6.70;;
11024;SDS011;22890;51.820;8.682;2024-01-30T10:09:45;7.83;;;6.33;;
11024;SDS011;22890;51.820;8.682;2024-01-30T10:12:12;11.80;;;6.87;;
11024;SDS011;22890;51.820;8.682;2024-01-30T10:14:39;8.50;;;6.00;;
11024;SDS011;22890;51.820;8.682;2024-01-30T10:17:09;9.63;;;6.33;;
11024;SDS011;22890;51.820;8.682;2024-01-30T10:19:49;10.33;;;6.07;;
11024;SDS011;22890;51.820;8.682;2024-01-30T10:22:17;9.60;;;6.27;;
11024;SDS011;22890;51.820;8.682;2024-01-30T10:24:45;10.27;;;6.80;;
11024;SDS011;22890;51.820;8.682;2024-01-30T10:27:12;10.43;;;5.90;;
11024;SDS011;22890;51.820;8.682;2024-01-30T10:29:39;8.10;;;5.90;;
11024;SDS011;22890;51.820;8.682;2024-01-30T10:32:06;8.60;;;5.97;;
11024;SDS011;22890;51.820;8.682;2024-01-30T10:34:33;8.67;;;6.20;;
11024;SDS011;22890;51.820;8.682;2024-01-30T10:37:07;8.63;;;6.57;;
11024;SDS011;22890;51.820;8.682;2024-01-30T10:39:43;13.10;;;7.03;;
11024;SDS011;22890;51.820;8.682;2024-01-30T10:42:18;11.13;;;6.50;;
11024;SDS011;22890;51.820;8.682;2024-01-30T10:47:31;10.50;;;6.33;;
11024;SDS011;22890;51.820;8.682;2024-01-30T10:50:01;10.67;;;6.67;;
11024;SDS011;22890;51.820;8.682;2024-01-30T10:52:29;8.20;;;6.60;;
11024;SDS011;22890;51.820;8.682;2024-01-30T10:54:57;7.70;;;6.13;;
11024;SDS011;22890;51.820;8.682;2024-01-30T10:57:25;8.73;;;5.90;;
11024;SDS011;22890;51.820;8.682;2024-01-30T10:59:55;9.80;;;6.70;;
11024;SDS011;22890;51.820;8.682;2024-01-30T11:02:24;9.13;;;6.27;;
11024;SDS011;22890;51.820;8.682;2024-01-30T11:04:56;10.40;;;6.83;;
11024;SDS011;22890;51.820;8.682;2024-01-30T11:07:28;12.13;;;6.30;;
11024;SDS011;22890;51.820;8.682;2024-01-30T11:12:28;11.77;;;7.27;;
11024;SDS011;22890;51.820;8.682;2024-01-30T11:20:14;14.03;;;6.40;;
11024;SDS011;22890;51.820;8.682;2024-01-30T11:22:44;12.17;;;6.97;;
11024;SDS011;22890;51.820;8.682;2024-01-30T11:25:12;10.13;;;7.47;;
11024;SDS011;22890;51.820;8.682;2024-01-30T11:27:44;10.27;;;6.50;;
11024;SDS011;22890;51.820;8.682;2024-01-30T11:30:28;7.77;;;6.97;;
11024;SDS011;22890;51.820;8.682;2024-01-30T11:33:06;9.93;;;6.50;;
11024;SDS011;22890;51.820;8.682;2024-01-30T11:35:44;10.20;;;7.03;;
11024;SDS011;22890;51.820;8.682;2024-01-30T11:38:13;15.47;;;7.70;;
11024;SDS011;22890;51.820;8.682;2024-01-30T11:40:40;11.63;;;7.33;;
11024;SDS011;22890;51.820;8.682;2024-01-30T11:43:08;11.90;;;6.47;;
11024;SDS011;22890;51.820;8.682;2024-01-30T11:45:35;11.60;;;7.77;;
11024;SDS011;22890;51.820;8.682;2024-01-30T11:48:04;12.80;;;8.47;;
11024;SDS011;22890;51.820;8.682;2024-01-30T11:50:32;11.20;;;8.17;;
11024;SDS011;22890;51.820;8.682;2024-01-30T11:53:01;9.50;;;6.80;;
11024;SDS011;22890;51.820;8.682;2024-01-30T11:55:31;10.07;;;7.10;;
11024;SDS011;22890;51.820;8.682;2024-01-30T11:58:00;10.73;;;6.77;;
11024;SDS011;22890;51.820;8.682;2024-01-30T12:00:28;10.77;;;6.70;;
11024;SDS011;22890;51.820;8.682;2024-01-30T12:02:57;10.77;;;6.57;;
11024;SDS011;22890;51.820;8.682;2024-01-30T12:05:25;8.67;;;6.73;;
11024;SDS011;22890;51.820;8.682;2024-01-30T12:07:52;7.53;;;6.07;;
11024;SDS011;22890;51.820;8.682;2024-01-30T12:10:20;8.67;;;5.83;;
11024;SDS011;22890;51.820;8.682;2024-01-30T12:12:48;7.73;;;5.97;;
11024;SDS011;22890;51.820;8.682;2024-01-30T12:15:17;8.87;;;5.43;;
11024;SDS011;22890;51.820;8.682;2024-01-30T12:17:45;5.87;;;4.83;;
11024;SDS011;22890;51.820;8.682;2024-01-30T12:20:12;8.10;;;6.27;;
11024;SDS011;22890;51.820;8.682;2024-01-30T12:22:45;7.27;;;5.90;;
11024;SDS011;22890;51.820;8.682;2024-01-30T12:25:14;10.17;;;7.10;;
11024;SDS011;22890;51.820;8.682;2024-01-30T12:27:42;7.70;;;4.73;;
11024;SDS011;22890;51.820;8.682;2024-01-30T12:30:11;10.17;;;5.50;;
11024;SDS011;22890;51.820;8.682;2024-01-30T12:32:42;8.97;;;5.90;;
11024;SDS011;22890;51.820;8.682;2024-01-30T12:35:11;8.53;;;5.87;;
11024;SDS011;22890;51.820;8.682;2024-01-30T12:37:39;9.73;;;6.80;;
11024;SDS011;22890;51.820;8.682;2024-01-30T12:40:07;9.07;;;6.80;;
11024;SDS011;22890;51.820;8.682;2024-01-30T12:42:34;12.03;;;7.00;;
11024;SDS011;22890;51.820;8.682;2024-01-30T12:45:02;10.83;;;7.60;;
11024;SDS011;22890;51.820;8.682;2024-01-30T12:47:31;12.57;;;5.80;;
11024;SDS011;22890;51.820;8.682;2024-01-30T12:49:58;10.20;;;6.87;;
11024;SDS011;22890;51.820;8.682;2024-01-30T12:52:25;10.67;;;6.63;;
11024;SDS011;22890;51.820;8.682;2024-01-30T12:54:52;10.63;;;6.07;;
11024;SDS011;22890;51.820;8.682;2024-01-30T12:57:19;6.87;;;5.43;;
11024;SDS011;22890;51.820;8.682;2024-01-30T12:59:46;7.43;;;5.70;;
11024;SDS011;22890;51.820;8.682;2024-01-30T13:02:13;7.17;;;5.17;;
11024;SDS011;22890;51.820;8.682;2024-01-30T13:04:41;6.40;;;5.20;;
11024;SDS011;22890;51.820;8.682;2024-01-30T13:07:10;7.47;;;4.63;;
11024;SDS011;22890;51.820;8.682;2024-01-30T13:09:36;8.80;;;5.50;;
11024;SDS011;22890;51.820;8.682;2024-01-30T13:12:04;5.73;;;5.13;;
11024;SDS011;22890;51.820;8.682;2024-01-30T13:14:31;7.83;;;4.80;;
11024;SDS011;22890;51.820;8.682;2024-01-30T13:16:58;7.40;;;4.60;;
11024;SDS011;22890;51.820;8.682;2024-01-30T13:19:25;13.97;;;5.87;;
11024;SDS011;22890;51.820;8.682;2024-01-30T13:21:51;9.40;;;6.00;;
11024;SDS011;22890;51.820;8.682;2024-01-30T13:24:18;8.43;;;5.00;;
11024;SDS011;22890;51.820;8.682;2024-01-30T13:26:47;10.23;;;5.60;;
11024;SDS011;22890;51.820;8.682;2024-01-30T13:29:15;11.83;;;4.87;;
11024;SDS011;22890;51.820;8.682;2024-01-30T13:31:41;7.60;;;5.27;;
11024;SDS011;22890;51.820;8.682;2024-01-30T13:34:10;9.07;;;4.50;;
11024;SDS011;22890;51.820;8.682;2024-01-30T13:36:37;8.17;;;4.67;;
11024;SDS011;22890;51.820;8.682;2024-01-30T13:39:04;8.60;;;5.50;;
11024;SDS011;22890;51.820;8.682;2024-01-30T13:41:35;10.27;;;5.03;;
11024;SDS011;22890;51.820;8.682;2024-01-30T13:44:02;6.50;;;5.03;;
11024;SDS011;22890;51.820;8.682;2024-01-30T13:46:30;8.63;;;5.10;;
11024;SDS011;22890;51.820;8.682;2024-01-30T13:48:57;10.40;;;4.73;;
11024;SDS011;22890;51.820;8.682;2024-01-30T13:51:24;6.00;;;4.70;;
11024;SDS011;22890;51.820;8.682;2024-01-30T13:53:50;8.97;;;4.83;;
11024;SDS011;22890;51.820;8.682;2024-01-30T13:56:17;6.77;;;5.23;;
11024;SDS011;22890;51.820;8.682;2024-01-30T13:58:44;7.33;;;5.53;;
11024;SDS011;22890;51.820;8.682;2024-01-30T14:01:11;8.03;;;5.33;;
11024;SDS011;22890;51.820;8.682;2024-01-30T14:03:38;14.40;;;7.87;;
11024;SDS011;22890;51.820;8.682;2024-01-30T14:06:07;8.27;;;6.40;;
11024;SDS011;22890;51.820;8.682;2024-01-30T14:08:34;12.17;;;5.97;;
11024;SDS011;22890;51.820;8.682;2024-01-30T14:11:01;5.37;;;4.80;;
11024;SDS011;22890;51.820;8.682;2024-01-30T14:13:28;7.93;;;5.07;;
11024;SDS011;22890;51.820;8.682;2024-01-30T14:15:55;11.67;;;5.63;;
11024;SDS011;22890;51.820;8.682;2024-01-30T14:18:22;11.17;;;7.30;;
11024;SDS011;22890;51.820;8.682;2024-01-30T14:20:48;14.93;;;7.07;;
11024;SDS011;22890;51.820;8.682;2024-01-30T14:23:16;7.63;;;5.53;;
11024;SDS011;22890;51.820;8.682;2024-01-30T14:25:43;16.27;;;8.10;;
11024;SDS011;22890;51.820;8.682;2024-01-30T14:28:10;30.90;;;18.00;;
11024;SDS011;22890;51.820;8.682;2024-01-30T14:30:37;15.43;;;9.93;;
11024;SDS011;22890;51.820;8.682;2024-01-30T14:33:04;24.23;;;14.03;;
11024;SDS011;22890;51.820;8.682;2024-01-30T14:35:31;23.63;;;10.90;;
11024;SDS011;22890;51.820;8.682;2024-01-30T14:37:58;19.67;;;10.57;;
11024;SDS011;22890;51.820;8.682;2024-01-30T14:40:25;9.67;;;6.37;;
11024;SDS011;22890;51.820;8.682;2024-01-30T14:42:51;13.03;;;8.27;;
11024;SDS011;22890;51.820;8.682;2024-01-30T14:45:19;18.07;;;8.27;;
11024;SDS011;22890;51.820;8.682;2024-01-30T14:47:45;17.40;;;8.10;;
11024;SDS011;22890;51.820;8.682;2024-01-30T14:50:12;17.03;;;8.00;;
11024;SDS011;22890;51.820;8.682;2024-01-30T14:52:39;18.33;;;8.10;;
11024;SDS011;22890;51.820;8.682;2024-01-30T14:55:07;16.37;;;5.97;;